sensor_id;sensor_type;location;lat;lon;timestamp;P1;durP1;ratioP1;P2;durP2;ratioP2
4434;SDS011;46552;52.150;8.428;2024-01-15T00:01:00;20.27;;;9.33;;
4434;SDS011;46552;52.150;8.428;2024-01-15T00:03:27;21.43;;;9.50;;
4434;SDS011;46552;52.150;8.428;2024-01-15T00:05:56;20.97;;;9.27;;
4434;SDS011;46552;52.150;8.428;2024-01-15T00:08:23;15.50;;;8.50;;
4434;SDS011;46552;52.150;8.428;2024-01-15T00:10:50;14.00;;;8.17;;
4434;SDS011;46552;52.150;8.428;2024-01-15T00:13:17;16.40;;;8.33;;
4434;SDS011;46552;52.150;8.428;2024-01-15T00:15:45;19.00;;;8.43;;
4434;SDS011;46552;52.150;8.428;2024-01-15T00:18:12;21.20;;;9.30;;
4434;SDS011;46552;52.150;8.428;2024-01-15T00:20:39;16.90;;;7.83;;
4434;SDS011;46552;52.150;8.428;2024-01-15T00:23:07;17.53;;;7.43;;
4434;SDS011;46552;52.150;8.428;2024-01-15T00:25:34;16.10;;;8.53;;
4434;SDS011;46552;52.150;8.428;2024-01-15T00:28:02;20.20;;;8.70;;
4434;SDS011;46552;52.150;8.428;2024-01-15T00:30:29;22.53;;;9.23;;
4434;SDS011;46552;52.150;8.428;2024-01-15T00:32:56;27.27;;;8.40;;
4434;SDS011;46552;52.150;8.428;2024-01-15T00:35:24;17.17;;;7.77;;
4434;SDS011;46552;52.150;8.428;2024-01-15T00:37:51;20.97;;;7.70;;
4434;SDS011;46552;52.150;8.428;2024-01-15T00:40:20;16.97;;;8.40;;
4434;SDS011;46552;52.150;8.428;2024-01-15T00:42:47;15.40;;;7.07;;
4434;SDS011;46552;52.150;8.428;2024-01-15T00:45:15;25.50;;;8.90;;
4434;SDS011;46552;52.150;8.428;2024-01-15T00:47:42;29.00;;;9.00;;
4434;SDS011;46552;52.150;8.428;2024-01-15T00:50:09;18.33;;;8.33;;
4434;SDS011;46552;52.150;8.428;2024-01-15T00:52:37;21.17;;;7.83;;
4434;SDS011;46552;52.150;8.428;2024-01-15T00:55:05;16.33;;;7.13;;
4434;SDS011;46552;52.150;8.428;2024-01-15T00:57:34;21.20;;;7.67;;
4434;SDS011;46552;52.150;8.428;2024-01-15T01:00:01;17.83;;;8.10;;
4434;SDS011;46552;52.150;8.428;2024-01-15T01:02:29;17.87;;;7.47;;
4434;SDS011;46552;52.150;8.428;2024-01-15T01:04:56;17.20;;;6.17;;
4434;SDS011;46552;52.150;8.428;2024-01-15T01:07:24;14.00;;;6.00;;
4434;SDS011;46552;52.150;8.428;2024-01-15T01:09:51;18.07;;;6.73;;
4434;SDS011;46552;52.150;8.428;2024-01-15T01:12:19;19.63;;;5.87;;
4434;SDS011;46552;52.150;8.428;2024-01-15T01:14:47;23.10;;;7.37;;
4434;SDS011;46552;52.150;8.428;2024-01-15T01:17:14;22.00;;;7.40;;
4434;SDS011;46552;52.150;8.428;2024-01-15T01:19:41;18.57;;;5.60;;
4434;SDS011;46552;52.150;8.428;2024-01-15T01:22:10;15.60;;;7.10;;
4434;SDS011;46552;52.150;8.428;2024-01-15T01:24:38;29.80;;;7.60;;
4434;SDS011;46552;52.150;8.428;2024-01-15T01:27:06;15.27;;;7.40;;
4434;SDS011;46552;52.150;8.428;2024-01-15T01:29:34;20.13;;;6.23;;
4434;SDS011;46552;52.150;8.428;2024-01-15T01:32:03;19.03;;;7.63;;
4434;SDS011;46552;52.150;8.428;2024-01-15T01:34:32;20.13;;;6.33;;
4434;SDS011;46552;52.150;8.428;2024-01-15T01:37:06;13.70;;;6.77;;
4434;SDS011;46552;52.150;8.428;2024-01-15T01:39:33;13.40;;;6.20;;
4434;SDS011;46552;52.150;8.428;2024-01-15T01:42:00;13.63;;;6.27;;
4434;SDS011;46552;52.150;8.428;2024-01-15T01:44:27;18.33;;;6.60;;
4434;SDS011;46552;52.150;8.428;2024-01-15T01:46:55;20.47;;;6.00;;
4434;SDS011;46552;52.150;8.428;2024-01-15T01:49:25;11.97;;;4.50;;
4434;SDS011;46552;52.150;8.428;2024-01-15T01:51:53;12.27;;;4.63;;
4434;SDS011;46552;52.150;8.428;2024-01-15T01:54:22;21.70;;;5.00;;
4434;SDS011;46552;52.150;8.428;2024-01-15T01:56:51;14.10;;;4.13;;
4434;SDS011;46552;52.150;8.428;2024-01-15T01:59:18;15.00;;;5.10;;
4434;SDS011;46552;52.150;8.428;2024-01-15T02:01:46;16.33;;;4.33;;
4434;SDS011;46552;52.150;8.428;2024-01-15T02:04:14;12.47;;;4.33;;
4434;SDS011;46552;52.150;8.428;2024-01-15T02:06:43;13.03;;;4.00;;
4434;SDS011;46552;52.150;8.428;2024-01-15T02:09:10;17.97;;;5.50;;
4434;SDS011;46552;52.150;8.428;2024-01-15T02:11:40;21.83;;;3.43;;
4434;SDS011;46552;52.150;8.428;2024-01-15T02:14:07;23.17;;;4.47;;
4434;SDS011;46552;52.150;8.428;2024-01-15T02:16:35;18.00;;;4.03;;
4434;SDS011;46552;52.150;8.428;2024-01-15T02:19:03;15.43;;;3.80;;
4434;SDS011;46552;52.150;8.428;2024-01-15T02:21:31;19.07;;;4.07;;
4434;SDS011;46552;52.150;8.428;2024-01-15T02:23:59;16.27;;;3.90;;
4434;SDS011;46552;52.150;8.428;2024-01-15T02:26:27;9.83;;;3.70;;
4434;SDS011;46552;52.150;8.428;2024-01-15T02:28:54;10.30;;;4.20;;
4434;SDS011;46552;52.150;8.428;2024-01-15T02:31:22;9.17;;;3.50;;
4434;SDS011;46552;52.150;8.428;2024-01-15T02:33:49;28.17;;;5.13;;
4434;SDS011;46552;52.150;8.428;2024-01-15T02:36:16;12.33;;;3.47;;
4434;SDS011;46552;52.150;8.428;2024-01-15T02:38:43;10.90;;;3.70;;
4434;SDS011;46552;52.150;8.428;2024-01-15T02:41:12;13.87;;;4.90;;
4434;SDS011;46552;52.150;8.428;2024-01-15T02:43:39;12.10;;;3.70;;
4434;SDS011;46552;52.150;8.428;2024-01-15T02:46:06;14.87;;;3.73;;
4434;SDS011;46552;52.150;8.428;2024-01-15T02:48:34;11.70;;;3.77;;
4434;SDS011;46552;52.150;8.428;2024-01-15T02:51:02;11.40;;;4.47;;
4434;SDS011;46552;52.150;8.428;2024-01-15T02:53:29;8.70;;;3.90;;
4434;SDS011;46552;52.150;8.428;2024-01-15T02:55:57;15.87;;;3.43;;
4434;SDS011;46552;52.150;8.428;2024-01-15T02:58:26;13.67;;;4.53;;
4434;SDS011;46552;52.150;8.428;2024-01-15T03:00:53;11.40;;;3.53;;
4434;SDS011;46552;52.150;8.428;2024-01-15T03:03:22;12.20;;;4.87;;
4434;SDS011;46552;52.150;8.428;2024-01-15T03:05:49;16.93;;;5.57;;
4434;SDS011;46552;52.150;8.428;2024-01-15T03:08:17;14.43;;;4.17;;
4434;SDS011;46552;52.150;8.428;2024-01-15T03:10:44;16.70;;;4.43;;
4434;SDS011;46552;52.150;8.428;2024-01-15T03:13:11;11.80;;;5.33;;
4434;SDS011;46552;52.150;8.428;2024-01-15T03:15:40;22.83;;;4.80;;
4434;SDS011;46552;52.150;8.428;2024-01-15T03:18:07;21.07;;;3.87;;
4434;SDS011;46552;52.150;8.428;2024-01-15T03:20:35;20.97;;;5.90;;
4434;SDS011;46552;52.150;8.428;2024-01-15T03:23:02;12.40;;;3.90;;
4434;SDS011;46552;52.150;8.428;2024-01-15T03:25:30;21.57;;;5.30;;
4434;SDS011;46552;52.150;8.428;2024-01-15T03:27:57;12.93;;;5.43;;
4434;SDS011;46552;52.150;8.428;2024-01-15T03:30:24;12.73;;;4.60;;
4434;SDS011;46552;52.150;8.428;2024-01-15T03:32:54;19.70;;;4.97;;
4434;SDS011;46552;52.150;8.428;2024-01-15T03:35:21;9.63;;;4.67;;
4434;SDS011;46552;52.150;8.428;2024-01-15T03:37:49;29.13;;;5.30;;
4434;SDS011;46552;52.150;8.428;2024-01-15T03:40:16;11.30;;;5.07;;
4434;SDS011;46552;52.150;8.428;2024-01-15T03:42:43;11.40;;;4.73;;
4434;SDS011;46552;52.150;8.428;2024-01-15T03:45:10;21.27;;;5.00;;
4434;SDS011;46552;52.150;8.428;2024-01-15T03:47:38;16.30;;;4.40;;
4434;SDS011;46552;52.150;8.428;2024-01-15T03:50:07;17.13;;;6.10;;
4434;SDS011;46552;52.150;8.428;2024-01-15T03:52:35;15.57;;;5.33;;
4434;SDS011;46552;52.150;8.428;2024-01-15T03:55:04;14.50;;;4.80;;
4434;SDS011;46552;52.150;8.428;2024-01-15T03:57:31;25.27;;;5.97;;
4434;SDS011;46552;52.150;8.428;2024-01-15T03:59:58;10.73;;;4.93;;
4434;SDS011;46552;52.150;8.428;2024-01-15T04:02:25;17.93;;;5.03;;
4434;SDS011;46552;52.150;8.428;2024-01-15T04:04:52;14.67;;;5.50;;
4434;SDS011;46552;52.150;8.428;2024-01-15T04:07:21;15.17;;;4.83;;
4434;SDS011;46552;52.150;8.428;2024-01-15T04:09:48;22.63;;;6.27;;
4434;SDS011;46552;52.150;8.428;2024-01-15T04:12:15;19.63;;;5.80;;
4434;SDS011;46552;52.150;8.428;2024-01-15T04:14:43;8.60;;;3.77;;
4434;SDS011;46552;52.150;8.428;2024-01-15T04:17:10;14.20;;;4.40;;
4434;SDS011;46552;52.150;8.428;2024-01-15T04:19:37;17.53;;;4.77;;
4434;SDS011;46552;52.150;8.428;2024-01-15T04:22:04;15.23;;;4.97;;
4434;SDS011;46552;52.150;8.428;2024-01-15T04:24:33;10.93;;;3.90;;
4434;SDS011;46552;52.150;8.428;2024-01-15T04:27:01;23.47;;;5.27;;
4434;SDS011;46552;52.150;8.428;2024-01-15T04:29:28;16.50;;;4.50;;
4434;SDS011;46552;52.150;8.428;2024-01-15T04:31:55;32.63;;;4.97;;
4434;SDS011;46552;52.150;8.428;2024-01-15T04:34:22;14.00;;;4.70;;
4434;SDS011;46552;52.150;8.428;2024-01-15T04:36:49;13.03;;;4.10;;
4434;SDS011;46552;52.150;8.428;2024-01-15T04:39:16;21.07;;;5.07;;
4434;SDS011;46552;52.150;8.428;2024-01-15T04:41:45;13.23;;;3.70;;
4434;SDS011;46552;52.150;8.428;2024-01-15T04:44:13;17.23;;;4.13;;
4434;SDS011;46552;52.150;8.428;2024-01-15T04:46:41;15.17;;;3.67;;
4434;SDS011;46552;52.150;8.428;2024-01-15T04:49:09;12.10;;;3.17;;
4434;SDS011;46552;52.150;8.428;2024-01-15T04:51:36;18.73;;;3.63;;
4434;SDS011;46552;52.150;8.428;2024-01-15T04:54:03;9.97;;;3.23;;
4434;SDS011;46552;52.150;8.428;2024-01-15T04:56:31;16.87;;;3.27;;
4434;SDS011;46552;52.150;8.428;2024-01-15T04:59:00;20.10;;;3.20;;
4434;SDS011;46552;52.150;8.428;2024-01-15T05:01:30;12.67;;;3.40;;
4434;SDS011;46552;52.150;8.428;2024-01-15T05:03:58;14.90;;;3.30;;
4434;SDS011;46552;52.150;8.428;2024-01-15T05:06:25;14.67;;;3.57;;
4434;SDS011;46552;52.150;8.428;2024-01-15T05:08:52;20.63;;;4.17;;
4434;SDS011;46552;52.150;8.428;2024-01-15T05:11:20;15.17;;;3.63;;
4434;SDS011;46552;52.150;8.428;2024-01-15T05:13:47;9.87;;;3.10;;
4434;SDS011;46552;52.150;8.428;2024-01-15T05:16:15;14.93;;;3.40;;
4434;SDS011;46552;52.150;8.428;2024-01-15T05:18:43;12.47;;;5.33;;
4434;SDS011;46552;52.150;8.428;2024-01-15T05:21:10;10.93;;;3.50;;
4434;SDS011;46552;52.150;8.428;2024-01-15T05:23:38;12.50;;;3.73;;
4434;SDS011;46552;52.150;8.428;2024-01-15T05:26:05;7.73;;;2.80;;
4434;SDS011;46552;52.150;8.428;2024-01-15T05:28:34;11.70;;;3.83;;
4434;SDS011;46552;52.150;8.428;2024-01-15T05:31:01;14.23;;;3.10;;
4434;SDS011;46552;52.150;8.428;2024-01-15T05:33:30;11.67;;;3.50;;
4434;SDS011;46552;52.150;8.428;2024-01-15T05:35:57;10.23;;;3.50;;
4434;SDS011;46552;52.150;8.428;2024-01-15T05:38:25;19.90;;;3.67;;
4434;SDS011;46552;52.150;8.428;2024-01-15T05:40:52;23.27;;;4.30;;
4434;SDS011;46552;52.150;8.428;2024-01-15T05:43:19;14.53;;;3.77;;
4434;SDS011;46552;52.150;8.428;2024-01-15T05:45:47;12.27;;;3.17;;
4434;SDS011;46552;52.150;8.428;2024-01-15T05:48:15;13.10;;;2.90;;
4434;SDS011;46552;52.150;8.428;2024-01-15T05:50:44;17.53;;;2.80;;
4434;SDS011;46552;52.150;8.428;2024-01-15T05:53:12;14.33;;;3.70;;
4434;SDS011;46552;52.150;8.428;2024-01-15T05:55:40;13.83;;;2.87;;
4434;SDS011;46552;52.150;8.428;2024-01-15T05:58:07;16.20;;;4.00;;
4434;SDS011;46552;52.150;8.428;2024-01-15T06:00:35;4.67;;;2.03;;
4434;SDS011;46552;52.150;8.428;2024-01-15T06:03:03;7.70;;;2.50;;
4434;SDS011;46552;52.150;8.428;2024-01-15T06:05:31;7.07;;;2.10;;
4434;SDS011;46552;52.150;8.428;2024-01-15T06:07:59;15.03;;;3.10;;
4434;SDS011;46552;52.150;8.428;2024-01-15T06:10:26;7.23;;;2.27;;
4434;SDS011;46552;52.150;8.428;2024-01-15T06:12:53;4.47;;;1.73;;
4434;SDS011;46552;52.150;8.428;2024-01-15T06:15:20;15.83;;;2.80;;
4434;SDS011;46552;52.150;8.428;2024-01-15T06:17:48;5.47;;;2.20;;
4434;SDS011;46552;52.150;8.428;2024-01-15T06:20:15;9.40;;;2.60;;
4434;SDS011;46552;52.150;8.428;2024-01-15T06:22:42;13.90;;;2.97;;
4434;SDS011;46552;52.150;8.428;2024-01-15T06:25:11;10.03;;;2.47;;
4434;SDS011;46552;52.150;8.428;2024-01-15T06:27:39;19.20;;;2.90;;
4434;SDS011;46552;52.150;8.428;2024-01-15T06:30:06;16.40;;;3.70;;
4434;SDS011;46552;52.150;8.428;2024-01-15T06:32:34;10.27;;;4.50;;
4434;SDS011;46552;52.150;8.428;2024-01-15T06:35:01;14.47;;;3.60;;
4434;SDS011;46552;52.150;8.428;2024-01-15T06:37:28;7.03;;;3.00;;
4434;SDS011;46552;52.150;8.428;2024-01-15T06:39:57;8.57;;;3.60;;
4434;SDS011;46552;52.150;8.428;2024-01-15T06:42:26;10.97;;;3.27;;
4434;SDS011;46552;52.150;8.428;2024-01-15T06:44:53;11.33;;;3.50;;
4434;SDS011;46552;52.150;8.428;2024-01-15T06:47:20;16.33;;;3.87;;
4434;SDS011;46552;52.150;8.428;2024-01-15T06:49:47;9.90;;;2.87;;
4434;SDS011;46552;52.150;8.428;2024-01-15T06:52:15;7.53;;;3.00;;
4434;SDS011;46552;52.150;8.428;2024-01-15T06:54:42;9.23;;;3.80;;
4434;SDS011;46552;52.150;8.428;2024-01-15T06:57:10;14.80;;;2.97;;
4434;SDS011;46552;52.150;8.428;2024-01-15T06:59:38;7.97;;;3.00;;
4434;SDS011;46552;52.150;8.428;2024-01-15T07:02:06;16.30;;;2.83;;
4434;SDS011;46552;52.150;8.428;2024-01-15T07:04:33;7.00;;;2.70;;
4434;SDS011;46552;52.150;8.428;2024-01-15T07:07:01;6.27;;;2.70;;
4434;SDS011;46552;52.150;8.428;2024-01-15T07:09:28;8.10;;;3.10;;
4434;SDS011;46552;52.150;8.428;2024-01-15T07:11:55;12.20;;;3.03;;
4434;SDS011;46552;52.150;8.428;2024-01-15T07:14:23;13.23;;;3.60;;
4434;SDS011;46552;52.150;8.428;2024-01-15T07:16:51;10.10;;;3.07;;
4434;SDS011;46552;52.150;8.428;2024-01-15T07:19:18;7.63;;;3.03;;
4434;SDS011;46552;52.150;8.428;2024-01-15T07:21:46;12.00;;;3.97;;
4434;SDS011;46552;52.150;8.428;2024-01-15T07:24:13;15.27;;;3.53;;
4434;SDS011;46552;52.150;8.428;2024-01-15T07:26:41;16.13;;;3.83;;
4434;SDS011;46552;52.150;8.428;2024-01-15T07:29:08;9.80;;;3.00;;
4434;SDS011;46552;52.150;8.428;2024-01-15T07:31:36;12.13;;;4.00;;
4434;SDS011;46552;52.150;8.428;2024-01-15T07:34:05;15.83;;;3.47;;
4434;SDS011;46552;52.150;8.428;2024-01-15T07:36:32;12.90;;;3.97;;
4434;SDS011;46552;52.150;8.428;2024-01-15T07:38:59;12.27;;;3.17;;
4434;SDS011;46552;52.150;8.428;2024-01-15T07:41:27;9.70;;;3.53;;
4434;SDS011;46552;52.150;8.428;2024-01-15T07:43:54;21.13;;;4.27;;
4434;SDS011;46552;52.150;8.428;2024-01-15T07:46:21;15.80;;;2.90;;
4434;SDS011;46552;52.150;8.428;2024-01-15T07:48:50;11.90;;;3.10;;
4434;SDS011;46552;52.150;8.428;2024-01-15T07:51:22;14.73;;;3.10;;
4434;SDS011;46552;52.150;8.428;2024-01-15T07:53:50;16.00;;;3.20;;
4434;SDS011;46552;52.150;8.428;2024-01-15T07:56:17;8.00;;;2.93;;
4434;SDS011;46552;52.150;8.428;2024-01-15T07:58:44;13.20;;;3.30;;
4434;SDS011;46552;52.150;8.428;2024-01-15T08:01:11;6.30;;;2.67;;
4434;SDS011;46552;52.150;8.428;2024-01-15T08:03:39;5.23;;;2.37;;
4434;SDS011;46552;52.150;8.428;2024-01-15T08:06:06;14.63;;;3.00;;
4434;SDS011;46552;52.150;8.428;2024-01-15T08:08:36;22.77;;;3.80;;
4434;SDS011;46552;52.150;8.428;2024-01-15T08:11:04;8.40;;;2.97;;
4434;SDS011;46552;52.150;8.428;2024-01-15T08:13:31;7.23;;;2.83;;
4434;SDS011;46552;52.150;8.428;2024-01-15T08:15:58;9.27;;;2.67;;
4434;SDS011;46552;52.150;8.428;2024-01-15T08:18:26;5.70;;;2.63;;
4434;SDS011;46552;52.150;8.428;2024-01-15T08:20:53;14.13;;;3.27;;
4434;SDS011;46552;52.150;8.428;2024-01-15T08:23:20;5.60;;;2.50;;
4434;SDS011;46552;52.150;8.428;2024-01-15T08:25:49;8.10;;;2.67;;
4434;SDS011;46552;52.150;8.428;2024-01-15T08:28:16;7.20;;;2.27;;
4434;SDS011;46552;52.150;8.428;2024-01-15T08:30:43;5.10;;;2.40;;
4434;SDS011;46552;52.150;8.428;2024-01-15T08:33:10;5.40;;;1.80;;
4434;SDS011;46552;52.150;8.428;2024-01-15T08:35:38;13.77;;;2.30;;
4434;SDS011;46552;52.150;8.428;2024-01-15T08:38:05;7.70;;;1.60;;
4434;SDS011;46552;52.150;8.428;2024-01-15T08:40:33;3.40;;;1.60;;
4434;SDS011;46552;52.150;8.428;2024-01-15T08:43:01;4.27;;;1.70;;
4434;SDS011;46552;52.150;8.428;2024-01-15T08:45:29;8.53;;;2.60;;
4434;SDS011;46552;52.150;8.428;2024-01-15T08:47:57;4.17;;;2.33;;
4434;SDS011;46552;52.150;8.428;2024-01-15T08:50:24;5.90;;;2.20;;
4434;SDS011;46552;52.150;8.428;2024-01-15T08:52:51;4.90;;;2.33;;
4434;SDS011;46552;52.150;8.428;2024-01-15T08:55:19;10.53;;;2.80;;
4434;SDS011;46552;52.150;8.428;2024-01-15T08:57:47;5.53;;;2.93;;
4434;SDS011;46552;52.150;8.428;2024-01-15T09:00:17;6.73;;;3.07;;
4434;SDS011;46552;52.150;8.428;2024-01-15T09:02:44;4.37;;;2.60;;
4434;SDS011;46552;52.150;8.428;2024-01-15T09:05:11;9.77;;;4.97;;
4434;SDS011;46552;52.150;8.428;2024-01-15T09:07:39;6.73;;;3.53;;
4434;SDS011;46552;52.150;8.428;2024-01-15T09:10:07;5.60;;;4.10;;
4434;SDS011;46552;52.150;8.428;2024-01-15T09:12:35;7.60;;;4.20;;
4434;SDS011;46552;52.150;8.428;2024-01-15T09:15:04;7.90;;;4.37;;
4434;SDS011;46552;52.150;8.428;2024-01-15T09:17:34;7.20;;;3.73;;
4434;SDS011;46552;52.150;8.428;2024-01-15T09:20:02;9.13;;;3.90;;
4434;SDS011;46552;52.150;8.428;2024-01-15T09:22:30;5.63;;;3.70;;
4434;SDS011;46552;52.150;8.428;2024-01-15T09:24:58;11.70;;;4.43;;
4434;SDS011;46552;52.150;8.428;2024-01-15T09:27:25;4.80;;;3.23;;
4434;SDS011;46552;52.150;8.428;2024-01-15T09:29:53;5.20;;;3.60;;
4434;SDS011;46552;52.150;8.428;2024-01-15T09:32:20;5.20;;;3.27;;
4434;SDS011;46552;52.150;8.428;2024-01-15T09:34:49;11.73;;;3.93;;
4434;SDS011;46552;52.150;8.428;2024-01-15T09:37:17;13.93;;;4.23;;
4434;SDS011;46552;52.150;8.428;2024-01-15T09:39:45;8.10;;;5.50;;
4434;SDS011;46552;52.150;8.428;2024-01-15T09:42:13;13.37;;;5.23;;
4434;SDS011;46552;52.150;8.428;2024-01-15T09:44:41;15.57;;;5.50;;
4434;SDS011;46552;52.150;8.428;2024-01-15T09:47:10;9.73;;;4.90;;
4434;SDS011;46552;52.150;8.428;2024-01-15T09:49:38;8.93;;;4.47;;
4434;SDS011;46552;52.150;8.428;2024-01-15T09:52:07;12.17;;;4.43;;
4434;SDS011;46552;52.150;8.428;2024-01-15T09:54:35;12.97;;;4.83;;
4434;SDS011;46552;52.150;8.428;2024-01-15T09:57:03;14.30;;;4.47;;
4434;SDS011;46552;52.150;8.428;2024-01-15T09:59:31;11.17;;;4.40;;
4434;SDS011;46552;52.150;8.428;2024-01-15T10:01:59;11.43;;;4.37;;
4434;SDS011;46552;52.150;8.428;2024-01-15T10:04:27;16.33;;;4.43;;
4434;SDS011;46552;52.150;8.428;2024-01-15T10:06:55;15.67;;;4.20;;
4434;SDS011;46552;52.150;8.428;2024-01-15T10:09:25;21.57;;;5.00;;
4434;SDS011;46552;52.150;8.428;2024-01-15T10:11:53;14.70;;;4.30;;
4434;SDS011;46552;52.150;8.428;2024-01-15T10:14:20;10.13;;;3.30;;
4434;SDS011;46552;52.150;8.428;2024-01-15T10:16:48;11.60;;;3.60;;
4434;SDS011;46552;52.150;8.428;2024-01-15T10:19:15;11.87;;;3.47;;
4434;SDS011;46552;52.150;8.428;2024-01-15T10:21:42;9.40;;;4.27;;
4434;SDS011;46552;52.150;8.428;2024-01-15T10:24:11;7.77;;;3.13;;
4434;SDS011;46552;52.150;8.428;2024-01-15T10:26:40;12.67;;;4.57;;
4434;SDS011;46552;52.150;8.428;2024-01-15T10:29:07;8.93;;;3.63;;
4434;SDS011;46552;52.150;8.428;2024-01-15T10:31:36;12.33;;;3.90;;
4434;SDS011;46552;52.150;8.428;2024-01-15T10:34:11;15.40;;;3.47;;
4434;SDS011;46552;52.150;8.428;2024-01-15T10:36:40;8.17;;;3.43;;
4434;SDS011;46552;52.150;8.428;2024-01-15T10:39:08;7.23;;;3.20;;
4434;SDS011;46552;52.150;8.428;2024-01-15T10:41:37;11.30;;;3.37;;
4434;SDS011;46552;52.150;8.428;2024-01-15T10:44:06;13.10;;;3.63;;
4434;SDS011;46552;52.150;8.428;2024-01-15T10:46:33;10.23;;;3.60;;
4434;SDS011;46552;52.150;8.428;2024-01-15T10:49:01;9.83;;;3.90;;
4434;SDS011;46552;52.150;8.428;2024-01-15T10:51:29;11.63;;;3.17;;
4434;SDS011;46552;52.150;8.428;2024-01-15T10:53:57;8.93;;;3.50;;
4434;SDS011;46552;52.150;8.428;2024-01-15T10:56:26;10.10;;;2.97;;
4434;SDS011;46552;52.150;8.428;2024-01-15T10:58:57;17.33;;;3.50;;
4434;SDS011;46552;52.150;8.428;2024-01-15T11:01:26;13.57;;;3.47;;
4434;SDS011;46552;52.150;8.428;2024-01-15T11:03:55;14.43;;;3.33;;
4434;SDS011;46552;52.150;8.428;2024-01-15T11:06:23;17.00;;;4.10;;
4434;SDS011;46552;52.150;8.428;2024-01-15T11:08:54;12.20;;;3.23;;
4434;SDS011;46552;52.150;8.428;2024-01-15T11:11:22;7.40;;;3.10;;
4434;SDS011;46552;52.150;8.428;2024-01-15T11:13:49;11.63;;;2.90;;
4434;SDS011;46552;52.150;8.428;2024-01-15T11:16:17;8.83;;;3.50;;
4434;SDS011;46552;52.150;8.428;2024-01-15T11:19:01;8.10;;;2.57;;
4434;SDS011;46552;52.150;8.428;2024-01-15T11:21:31;11.10;;;2.80;;
4434;SDS011;46552;52.150;8.428;2024-01-15T11:23:58;9.43;;;2.50;;
4434;SDS011;46552;52.150;8.428;2024-01-15T11:26:27;20.63;;;3.57;;
4434;SDS011;46552;52.150;8.428;2024-01-15T11:28:55;12.97;;;2.70;;
4434;SDS011;46552;52.150;8.428;2024-01-15T11:31:26;12.00;;;3.80;;
4434;SDS011;46552;52.150;8.428;2024-01-15T11:33:54;7.70;;;2.73;;
4434;SDS011;46552;52.150;8.428;2024-01-15T11:36:22;9.80;;;3.00;;
4434;SDS011;46552;52.150;8.428;2024-01-15T11:39:41;19.47;;;3.53;;
4434;SDS011;46552;52.150;8.428;2024-01-15T11:42:09;14.87;;;2.87;;
4434;SDS011;46552;52.150;8.428;2024-01-15T11:44:38;8.37;;;3.63;;
4434;SDS011;46552;52.150;8.428;2024-01-15T11:47:05;7.13;;;3.20;;
4434;SDS011;46552;52.150;8.428;2024-01-15T11:49:41;14.13;;;2.90;;
4434;SDS011;46552;52.150;8.428;2024-01-15T11:52:26;10.00;;;2.70;;
4434;SDS011;46552;52.150;8.428;2024-01-15T11:55:01;10.03;;;3.70;;
4434;SDS011;46552;52.150;8.428;2024-01-15T11:57:40;8.87;;;2.50;;
4434;SDS011;46552;52.150;8.428;2024-01-15T12:00:10;16.10;;;4.17;;
4434;SDS011;46552;52.150;8.428;2024-01-15T12:02:39;11.27;;;2.50;;
4434;SDS011;46552;52.150;8.428;2024-01-15T12:05:07;14.60;;;3.10;;
4434;SDS011;46552;52.150;8.428;2024-01-15T12:07:38;12.97;;;2.93;;
4434;SDS011;46552;52.150;8.428;2024-01-15T12:10:10;12.13;;;3.20;;
4434;SDS011;46552;52.150;8.428;2024-01-15T12:12:40;9.33;;;3.53;;
4434;SDS011;46552;52.150;8.428;2024-01-15T12:15:21;8.63;;;3.37;;
4434;SDS011;46552;52.150;8.428;2024-01-15T12:17:48;8.97;;;3.10;;
4434;SDS011;46552;52.150;8.428;2024-01-15T12:20:16;12.43;;;2.47;;
4434;SDS011;46552;52.150;8.428;2024-01-15T12:22:45;18.20;;;3.60;;
4434;SDS011;46552;52.150;8.428;2024-01-15T12:25:12;4.60;;;2.70;;
4434;SDS011;46552;52.150;8.428;2024-01-15T12:27:41;7.03;;;3.80;;
4434;SDS011;46552;52.150;8.428;2024-01-15T12:30:10;9.20;;;3.00;;
4434;SDS011;46552;52.150;8.428;2024-01-15T12:32:38;17.97;;;4.80;;
4434;SDS011;46552;52.150;8.428;2024-01-15T12:35:07;10.03;;;3.43;;
4434;SDS011;46552;52.150;8.428;2024-01-15T12:37:35;8.47;;;4.33;;
4434;SDS011;46552;52.150;8.428;2024-01-15T12:40:05;13.40;;;3.93;;
4434;SDS011;46552;52.150;8.428;2024-01-15T12:42:34;14.10;;;4.03;;
4434;SDS011;46552;52.150;8.428;2024-01-15T12:45:02;10.67;;;3.30;;
4434;SDS011;46552;52.150;8.428;2024-01-15T12:47:31;10.67;;;3.10;;
4434;SDS011;46552;52.150;8.428;2024-01-15T12:49:59;16.53;;;3.10;;
4434;SDS011;46552;52.150;8.428;2024-01-15T12:52:26;8.53;;;3.60;;
4434;SDS011;46552;52.150;8.428;2024-01-15T12:54:54;9.23;;;4.50;;
4434;SDS011;46552;52.150;8.428;2024-01-15T12:57:22;13.93;;;4.33;;
4434;SDS011;46552;52.150;8.428;2024-01-15T12:59:50;12.83;;;3.90;;
4434;SDS011;46552;52.150;8.428;2024-01-15T13:02:17;9.13;;;3.93;;
4434;SDS011;46552;52.150;8.428;2024-01-15T13:04:45;9.77;;;3.33;;
4434;SDS011;46552;52.150;8.428;2024-01-15T13:07:12;9.00;;;3.53;;
4434;SDS011;46552;52.150;8.428;2024-01-15T13:09:39;7.83;;;2.90;;
4434;SDS011;46552;52.150;8.428;2024-01-15T13:12:06;6.27;;;2.77;;
4434;SDS011;46552;52.150;8.428;2024-01-15T13:14:35;9.00;;;2.70;;
4434;SDS011;46552;52.150;8.428;2024-01-15T13:17:03;11.80;;;3.10;;
4434;SDS011;46552;52.150;8.428;2024-01-15T13:19:31;5.73;;;2.97;;
4434;SDS011;46552;52.150;8.428;2024-01-15T13:21:59;7.93;;;2.60;;
4434;SDS011;46552;52.150;8.428;2024-01-15T13:24:26;6.63;;;3.17;;
4434;SDS011;46552;52.150;8.428;2024-01-15T13:26:54;5.33;;;2.43;;
4434;SDS011;46552;52.150;8.428;2024-01-15T13:29:22;9.20;;;2.07;;
4434;SDS011;46552;52.150;8.428;2024-01-15T13:31:51;5.97;;;3.10;;
4434;SDS011;46552;52.150;8.428;2024-01-15T13:34:18;6.27;;;2.70;;
4434;SDS011;46552;52.150;8.428;2024-01-15T13:36:45;6.00;;;2.40;;
4434;SDS011;46552;52.150;8.428;2024-01-15T13:39:15;7.43;;;3.33;;
4434;SDS011;46552;52.150;8.428;2024-01-15T13:41:45;7.17;;;3.10;;
4434;SDS011;46552;52.150;8.428;2024-01-15T13:44:12;9.93;;;3.40;;
4434;SDS011;46552;52.150;8.428;2024-01-15T13:46:39;14.00;;;4.17;;
4434;SDS011;46552;52.150;8.428;2024-01-15T13:49:08;16.00;;;4.07;;
4434;SDS011;46552;52.150;8.428;2024-01-15T13:51:36;10.03;;;2.43;;
4434;SDS011;46552;52.150;8.428;2024-01-15T13:54:03;8.30;;;4.00;;
4434;SDS011;46552;52.150;8.428;2024-01-15T13:56:30;12.53;;;3.43;;
4434;SDS011;46552;52.150;8.428;2024-01-15T13:58:58;7.60;;;3.40;;
4434;SDS011;46552;52.150;8.428;2024-01-15T14:01:25;12.97;;;3.00;;
4434;SDS011;46552;52.150;8.428;2024-01-15T14:03:53;9.20;;;2.97;;
4434;SDS011;46552;52.150;8.428;2024-01-15T14:06:22;15.67;;;3.20;;
4434;SDS011;46552;52.150;8.428;2024-01-15T14:08:49;9.50;;;3.57;;
4434;SDS011;46552;52.150;8.428;2024-01-15T14:11:17;13.80;;;2.97;;
4434;SDS011;46552;52.150;8.428;2024-01-15T14:13:45;6.00;;;2.50;;
4434;SDS011;46552;52.150;8.428;2024-01-15T14:16:12;6.17;;;2.23;;
4434;SDS011;46552;52.150;8.428;2024-01-15T14:18:40;14.70;;;2.07;;
4434;SDS011;46552;52.150;8.428;2024-01-15T14:21:07;6.00;;;2.40;;
4434;SDS011;46552;52.150;8.428;2024-01-15T14:23:36;4.20;;;2.00;;
4434;SDS011;46552;52.150;8.428;2024-01-15T14:26:03;4.73;;;2.40;;
4434;SDS011;46552;52.150;8.428;2024-01-15T14:28:30;3.83;;;2.17;;
4434;SDS011;46552;52.150;8.428;2024-01-15T14:30:59;6.77;;;2.50;;
4434;SDS011;46552;52.150;8.428;2024-01-15T14:33:26;15.77;;;2.20;;
4434;SDS011;46552;52.150;8.428;2024-01-15T14:35:54;8.53;;;3.40;;
4434;SDS011;46552;52.150;8.428;2024-01-15T14:38:21;7.83;;;2.77;;
4434;SDS011;46552;52.150;8.428;2024-01-15T14:40:49;4.50;;;2.27;;
4434;SDS011;46552;52.150;8.428;2024-01-15T14:43:17;8.13;;;2.43;;
4434;SDS011;46552;52.150;8.428;2024-01-15T14:45:45;7.20;;;3.10;;
4434;SDS011;46552;52.150;8.428;2024-01-15T14:48:12;4.93;;;2.43;;
4434;SDS011;46552;52.150;8.428;2024-01-15T14:50:39;3.00;;;1.50;;
4434;SDS011;46552;52.150;8.428;2024-01-15T14:53:07;6.40;;;4.20;;
4434;SDS011;46552;52.150;8.428;2024-01-15T14:55:34;13.70;;;3.87;;
4434;SDS011;46552;52.150;8.428;2024-01-15T14:58:03;5.23;;;2.67;;